Bartonsville, Vermont
Current Conditions -  °F | °C
As of 6:54 PM on Saturday 20 Dec 2014 (Local Time) from KVSF Reporting Station
Overcast Overcast  
Wind Chill: 23°   Ceiling: 9000
Heat Index: 23°   Visibility: 8mi
Dew Point: 18°   Wind: 0mph
Humidity: 81%   Direction: NA
Pressure: 30.29"   Gusts: NA
Location:  43.2811°N, 72.6352°W
Report Text: KVSF 202354Z AUTO 00000KT 8SM OVC090 M05/M08 A3029 RMK AO2 SLP269 T10501078 10006 21050 53009 TSNO
Loading
Personal Weather Stations






























Interactive Weather Map New forecast layout! Learn more

10-Day Weather Forecast

Advertisements
Track Severe Weather on mobile